createdAt,value
2024-02-04T00:00:03.150Z,9.82
2024-02-04T00:02:29.956Z,9.82
2024-02-04T00:04:56.800Z,9.86
2024-02-04T00:07:23.872Z,9.77
2024-02-04T00:09:50.790Z,9.72
2024-02-04T00:12:17.632Z,9.70
2024-02-04T00:14:44.438Z,9.67
2024-02-04T00:17:11.238Z,9.66
2024-02-04T00:19:38.142Z,9.57
2024-02-04T00:22:05.188Z,9.58
2024-02-04T00:24:32.120Z,9.60
2024-02-04T00:26:58.946Z,9.62
2024-02-04T00:29:25.869Z,9.57
2024-02-04T00:31:52.649Z,9.54
2024-02-04T00:34:19.551Z,9.56
2024-02-04T00:36:46.398Z,9.57
2024-02-04T00:39:13.161Z,9.62
2024-02-04T00:41:39.938Z,9.61
2024-02-04T00:44:06.743Z,9.59
2024-02-04T00:46:33.553Z,9.58
2024-02-04T00:49:00.513Z,9.51
2024-02-04T00:51:27.494Z,9.50
2024-02-04T00:53:54.336Z,9.51
2024-02-04T00:56:21.146Z,9.37
2024-02-04T00:58:47.911Z,9.33
2024-02-04T01:01:14.849Z,9.30
2024-02-04T01:03:41.753Z,9.28
2024-02-04T01:06:08.514Z,9.30
2024-02-04T01:08:35.297Z,9.22
2024-02-04T01:11:02.124Z,9.20
2024-02-04T01:13:29.621Z,9.15
2024-02-04T01:15:56.484Z,9.10
2024-02-04T01:18:23.328Z,9.03
2024-02-04T01:20:50.237Z,9.05
2024-02-04T01:23:17.023Z,9.06
2024-02-04T01:25:44.219Z,9.07
2024-02-04T01:28:11.469Z,9.16
2024-02-04T01:30:38.362Z,9.03
2024-02-04T01:33:05.465Z,9.04
2024-02-04T01:35:32.281Z,8.94
2024-02-04T01:37:59.103Z,8.85
2024-02-04T01:40:25.938Z,8.92
2024-02-04T01:42:52.768Z,8.68
2024-02-04T01:45:19.577Z,8.69
2024-02-04T01:47:46.533Z,8.67
2024-02-04T01:50:13.398Z,8.60
2024-02-04T01:52:42.108Z,8.57
2024-02-04T01:55:09.752Z,8.24
2024-02-04T01:57:36.710Z,8.26
2024-02-04T02:00:04.524Z,8.38
2024-02-04T02:02:33.726Z,8.51
2024-02-04T02:05:00.864Z,8.61
2024-02-04T02:07:27.786Z,8.62
2024-02-04T02:09:55.854Z,8.64
2024-02-04T02:12:28.367Z,8.68
2024-02-04T02:15:27.104Z,8.78
2024-02-04T02:18:03.559Z,8.79
2024-02-04T02:21:09.234Z,8.83
2024-02-04T02:23:39.881Z,8.83
2024-02-04T02:26:07.931Z,8.78
2024-02-04T02:28:34.712Z,8.77
2024-02-04T02:31:04.510Z,8.81
2024-02-04T02:33:33.310Z,8.82
2024-02-04T02:36:03.567Z,8.82
2024-02-04T02:38:38.583Z,8.87
2024-02-04T02:41:09.742Z,8.79
2024-02-04T02:43:40.837Z,8.80
2024-02-04T02:46:08.898Z,8.81
2024-02-04T02:48:36.860Z,8.82
2024-02-04T02:51:03.809Z,8.80
2024-02-04T02:53:30.618Z,8.82
2024-02-04T02:55:57.435Z,8.79
2024-02-04T02:58:24.216Z,8.77
2024-02-04T03:00:51.038Z,8.75
2024-02-04T03:03:17.862Z,8.73
2024-02-04T03:05:44.651Z,8.68
2024-02-04T03:08:11.439Z,8.65
2024-02-04T03:10:38.183Z,8.64
2024-02-04T03:13:05.131Z,8.71
2024-02-04T03:15:32.005Z,8.68
2024-02-04T03:17:58.904Z,8.67
2024-02-04T03:20:25.721Z,8.69
2024-02-04T03:22:52.596Z,8.64
2024-02-04T03:25:19.431Z,8.67
2024-02-04T03:27:46.271Z,8.68
2024-02-04T03:30:13.219Z,8.69
2024-02-04T03:32:40.059Z,8.75
2024-02-04T03:35:07.083Z,8.76
2024-02-04T03:37:33.907Z,8.79
2024-02-04T03:40:00.909Z,8.79
2024-02-04T03:42:27.897Z,8.75
2024-02-04T03:44:55.441Z,8.67
2024-02-04T03:47:22.188Z,8.72
2024-02-04T03:49:49.049Z,8.71
2024-02-04T03:52:15.862Z,8.73
2024-02-04T03:54:42.706Z,8.74
2024-02-04T03:57:09.469Z,8.72
2024-02-04T03:59:36.208Z,8.69
2024-02-04T04:02:03.014Z,8.69
2024-02-04T04:04:30.080Z,8.57
2024-02-04T04:06:57.060Z,8.62
2024-02-04T04:09:23.967Z,8.66
2024-02-04T04:11:50.875Z,8.65
2024-02-04T04:14:17.684Z,8.70
2024-02-04T04:16:44.506Z,8.68
2024-02-04T04:19:11.499Z,8.73
2024-02-04T04:21:39.288Z,8.75
2024-02-04T04:24:06.447Z,8.77
2024-02-04T04:26:33.253Z,8.76
2024-02-04T04:29:00.073Z,8.76
2024-02-04T04:31:26.918Z,8.78
2024-02-04T04:33:54.009Z,8.75
2024-02-04T04:36:20.933Z,8.82
2024-02-04T04:38:47.794Z,8.76
2024-02-04T04:41:14.622Z,8.73
2024-02-04T04:43:41.417Z,8.75
2024-02-04T04:46:08.259Z,8.77
2024-02-04T04:48:35.274Z,8.75
2024-02-04T04:51:02.117Z,8.70
2024-02-04T04:53:28.943Z,8.63
2024-02-04T04:55:55.786Z,8.62
2024-02-04T04:58:22.569Z,8.59
2024-02-04T05:00:49.471Z,8.56
2024-02-04T05:03:16.343Z,8.56
2024-02-04T05:05:43.110Z,8.52
2024-02-04T05:08:09.963Z,8.53
2024-02-04T05:10:36.791Z,8.52
2024-02-04T05:13:03.710Z,8.51
2024-02-04T05:15:30.567Z,8.45
2024-02-04T05:17:57.411Z,8.46
2024-02-04T05:20:24.223Z,8.41
2024-02-04T05:22:51.025Z,8.36
2024-02-04T05:25:17.842Z,8.43
2024-02-04T05:27:44.764Z,8.45
2024-02-04T05:30:12.216Z,8.44
2024-02-04T05:32:39.068Z,8.30
2024-02-04T05:35:06.134Z,8.25
2024-02-04T05:37:32.893Z,8.35
2024-02-04T05:39:59.729Z,8.45
2024-02-04T05:42:26.607Z,8.48
2024-02-04T05:44:53.421Z,8.50
2024-02-04T05:47:20.234Z,8.51
2024-02-04T05:49:47.238Z,8.51
2024-02-04T05:52:14.285Z,8.54
2024-02-04T05:54:41.216Z,8.56
2024-02-04T05:57:08.439Z,8.61
2024-02-04T05:59:35.636Z,8.51
2024-02-04T06:02:02.476Z,8.50
2024-02-04T06:04:31.186Z,8.48
2024-02-04T06:06:58.089Z,8.44
2024-02-04T06:09:24.978Z,8.45
2024-02-04T06:11:51.816Z,8.43
2024-02-04T06:14:18.592Z,8.40
2024-02-04T06:16:45.342Z,8.36
2024-02-04T06:19:14.994Z,8.40
2024-02-04T06:21:41.924Z,8.38
2024-02-04T06:24:08.773Z,8.40
2024-02-04T06:26:38.974Z,8.41
2024-02-04T06:29:05.810Z,8.42
2024-02-04T06:31:32.587Z,8.42
2024-02-04T06:33:59.575Z,8.40
2024-02-04T06:36:26.489Z,8.39
2024-02-04T06:38:53.350Z,8.37
2024-02-04T06:41:20.164Z,7.89
2024-02-04T06:43:46.976Z,7.95
2024-02-04T06:46:13.893Z,7.70
2024-02-04T06:48:40.733Z,7.77
2024-02-04T06:51:07.529Z,7.71
2024-02-04T06:53:34.766Z,7.81
2024-02-04T06:56:01.560Z,7.84
2024-02-04T06:58:28.364Z,7.89
2024-02-04T07:00:55.189Z,7.95
2024-02-04T07:03:22.193Z,7.95
2024-02-04T07:05:49.074Z,7.90
2024-02-04T07:08:15.876Z,7.92
2024-02-04T07:10:42.717Z,7.87
2024-02-04T07:13:09.802Z,7.88
2024-02-04T07:15:36.697Z,7.93
2024-02-04T07:18:03.691Z,7.99
2024-02-04T07:20:30.554Z,7.92
2024-02-04T07:22:57.397Z,7.98
2024-02-04T07:25:24.135Z,7.87
2024-02-04T07:27:50.964Z,7.96
2024-02-04T07:30:18.347Z,7.98
2024-02-04T07:32:45.228Z,8.01
2024-02-04T07:35:12.200Z,7.98
2024-02-04T07:37:39.046Z,8.11
2024-02-04T07:40:06.651Z,8.16
2024-02-04T07:42:33.707Z,8.27
2024-02-04T07:45:00.489Z,8.36
2024-02-04T07:47:27.283Z,8.41
2024-02-04T07:49:54.263Z,8.40
2024-02-04T07:52:21.112Z,8.50
2024-02-04T07:54:48.069Z,8.40
2024-02-04T07:57:14.854Z,8.49
2024-02-04T07:59:41.640Z,8.53
2024-02-04T08:02:08.491Z,8.58
2024-02-04T08:04:35.547Z,8.66
2024-02-04T08:07:03.278Z,8.74
2024-02-04T08:09:30.173Z,8.79
2024-02-04T08:11:59.847Z,8.85
2024-02-04T08:14:26.953Z,8.90
2024-02-04T08:16:53.789Z,8.95
2024-02-04T08:19:20.756Z,9.00
2024-02-04T08:21:47.664Z,9.06
2024-02-04T08:24:14.462Z,9.10
2024-02-04T08:26:41.377Z,9.16
2024-02-04T08:29:08.162Z,9.19
2024-02-04T08:31:35.018Z,9.28
2024-02-04T08:34:01.961Z,9.32
2024-02-04T08:36:28.816Z,9.39
2024-02-04T08:38:55.663Z,9.40
2024-02-04T08:41:22.423Z,9.48
2024-02-04T08:43:49.248Z,9.56
2024-02-04T08:46:16.158Z,9.58
2024-02-04T08:48:43.304Z,9.60
2024-02-04T08:51:13.472Z,9.68
2024-02-04T08:53:40.719Z,9.77
2024-02-04T08:56:08.025Z,9.84
2024-02-04T08:58:34.909Z,9.89
2024-02-04T09:01:01.744Z,10.00
2024-02-04T09:03:28.662Z,10.05
2024-02-04T09:05:55.487Z,10.15
2024-02-04T09:08:22.335Z,10.24
2024-02-04T09:10:49.184Z,10.35
2024-02-04T09:13:19.095Z,10.42
2024-02-04T09:15:45.973Z,10.43
2024-02-04T09:18:12.851Z,10.48
2024-02-04T09:20:39.837Z,10.53
2024-02-04T09:23:06.666Z,10.64
2024-02-04T09:25:33.602Z,10.65
2024-02-04T09:28:00.604Z,10.72
2024-02-04T09:30:27.616Z,10.72
2024-02-04T09:32:54.674Z,10.77
2024-02-04T09:35:21.785Z,10.69
2024-02-04T09:37:48.827Z,10.51
2024-02-04T09:40:16.074Z,10.79
2024-02-04T09:42:43.076Z,10.60
2024-02-04T09:45:11.014Z,10.62
2024-02-04T09:47:40.044Z,10.67
2024-02-04T09:50:07.419Z,10.88
2024-02-04T09:52:37.610Z,10.87
2024-02-04T09:55:06.102Z,11.04
2024-02-04T09:57:35.913Z,11.10
2024-02-04T10:00:06.438Z,11.05
2024-02-04T10:02:34.086Z,11.21
2024-02-04T10:05:01.453Z,11.32
2024-02-04T10:07:28.598Z,11.39
2024-02-04T10:09:56.315Z,11.43
2024-02-04T10:12:23.330Z,11.42
2024-02-04T10:14:53.255Z,11.51
2024-02-04T10:17:20.982Z,11.54
2024-02-04T10:19:50.766Z,11.44
2024-02-04T10:22:17.824Z,11.60
2024-02-04T10:24:44.905Z,11.66
2024-02-04T10:27:16.292Z,11.74
2024-02-04T10:29:49.643Z,11.73
2024-02-04T10:32:21.788Z,11.83
2024-02-04T10:34:51.286Z,11.87
2024-02-04T10:37:18.320Z,11.90
2024-02-04T10:39:45.234Z,11.93
2024-02-04T10:42:14.423Z,11.99
2024-02-04T10:44:46.529Z,11.96
2024-02-04T10:47:18.032Z,12.07
2024-02-04T10:49:52.277Z,12.00
2024-02-04T10:52:19.655Z,12.02
2024-02-04T10:54:47.682Z,12.04
2024-02-04T10:57:20.110Z,12.03
2024-02-04T10:59:49.455Z,12.19
2024-02-04T11:02:21.044Z,12.21
2024-02-04T11:04:50.709Z,12.22
2024-02-04T11:07:19.289Z,12.29
2024-02-04T11:09:47.763Z,12.30
2024-02-04T11:12:17.749Z,12.32
2024-02-04T11:14:51.763Z,12.23
2024-02-04T11:17:27.812Z,12.41
2024-02-04T11:20:27.240Z,12.46
2024-02-04T11:22:54.018Z,12.46
2024-02-04T11:25:39.640Z,12.56
2024-02-04T11:28:07.244Z,12.65
2024-02-04T11:30:35.384Z,12.61
2024-02-04T11:33:02.668Z,12.63
2024-02-04T11:35:29.744Z,12.60
2024-02-04T11:37:59.942Z,12.67
2024-02-04T11:40:32.478Z,12.58
2024-02-04T11:43:11.604Z,12.74
2024-02-04T11:45:40.280Z,12.82
2024-02-04T11:48:12.014Z,12.82
2024-02-04T11:50:40.583Z,12.92
2024-02-04T11:53:12.899Z,12.97
2024-02-04T11:55:45.442Z,12.94
2024-02-04T11:58:13.972Z,12.94
2024-02-04T12:00:44.520Z,12.88
2024-02-04T12:03:11.413Z,12.79
2024-02-04T12:05:39.213Z,13.08
2024-02-04T12:08:08.136Z,13.06
2024-02-04T12:10:37.092Z,13.06
2024-02-04T12:13:05.431Z,13.14
2024-02-04T12:15:33.462Z,13.32
2024-02-04T12:18:13.565Z,13.44
2024-02-04T12:20:40.568Z,13.41
2024-02-04T12:23:08.424Z,13.50
2024-02-04T12:25:36.726Z,13.70
2024-02-04T12:28:04.492Z,13.75
2024-02-04T12:30:32.532Z,13.79
2024-02-04T12:33:00.988Z,13.82
2024-02-04T12:35:28.776Z,14.08
2024-02-04T12:37:57.109Z,14.19
2024-02-04T12:40:28.136Z,14.18
2024-02-04T12:43:05.706Z,14.25
2024-02-04T12:45:34.207Z,14.33
2024-02-04T12:48:01.237Z,14.31
2024-02-04T12:50:28.172Z,14.25
2024-02-04T12:53:06.894Z,14.44
2024-02-04T12:55:35.292Z,14.43
2024-02-04T12:58:13.876Z,14.41
2024-02-04T13:00:40.973Z,14.51
2024-02-04T13:03:09.079Z,14.50
2024-02-04T13:05:36.836Z,14.36
2024-02-04T13:08:05.542Z,14.44
2024-02-04T13:10:34.030Z,14.16
2024-02-04T13:13:07.984Z,14.32
2024-02-04T13:15:40.859Z,14.39
2024-02-04T13:18:09.584Z,14.47
2024-02-04T13:20:36.784Z,14.52
2024-02-04T13:23:03.618Z,14.64
2024-02-04T13:25:30.435Z,14.67
2024-02-04T13:27:57.577Z,14.58
2024-02-04T13:30:24.408Z,14.60
2024-02-04T13:32:51.954Z,14.68
2024-02-04T13:35:20.515Z,14.61
2024-02-04T13:37:49.466Z,14.75
2024-02-04T13:40:17.157Z,14.53
2024-02-04T13:42:44.596Z,14.64
2024-02-04T13:45:12.485Z,14.71
2024-02-04T13:47:39.317Z,14.74
2024-02-04T13:50:07.082Z,14.69
2024-02-04T13:52:33.993Z,14.63
2024-02-04T13:55:00.883Z,14.59
2024-02-04T13:57:27.773Z,14.58
2024-02-04T13:59:55.215Z,14.50
2024-02-04T14:02:22.051Z,14.62
2024-02-04T14:04:48.896Z,14.66
2024-02-04T14:07:15.818Z,14.65
2024-02-04T14:09:42.669Z,14.59
2024-02-04T14:12:09.508Z,14.70
2024-02-04T14:14:36.249Z,14.68
2024-02-04T14:17:02.974Z,14.66
2024-02-04T14:19:29.798Z,14.63
2024-02-04T14:21:56.633Z,14.69
2024-02-04T14:24:23.491Z,14.75
2024-02-04T14:26:56.967Z,14.59
2024-02-04T14:29:23.740Z,14.67
2024-02-04T14:31:50.624Z,14.78
2024-02-04T14:34:17.470Z,14.67
2024-02-04T14:36:44.448Z,14.62
2024-02-04T14:39:11.281Z,14.88
2024-02-04T14:41:38.600Z,15.00
2024-02-04T14:44:05.584Z,14.96
2024-02-04T14:46:32.403Z,15.00
2024-02-04T14:48:59.325Z,15.10
2024-02-04T14:51:26.124Z,15.16
2024-02-04T14:53:52.928Z,15.16
2024-02-04T14:56:19.719Z,15.15
2024-02-04T14:58:46.523Z,15.07
2024-02-04T15:01:13.369Z,15.01
2024-02-04T15:03:40.188Z,14.90
2024-02-04T15:06:07.146Z,14.89
2024-02-04T15:08:34.054Z,14.74
2024-02-04T15:11:00.831Z,14.76
2024-02-04T15:13:33.908Z,14.68
2024-02-04T15:16:01.522Z,14.59
2024-02-04T15:18:28.475Z,14.57
2024-02-04T15:20:55.504Z,14.47
2024-02-04T15:23:22.634Z,14.46
2024-02-04T15:25:49.504Z,14.41
2024-02-04T15:28:16.820Z,14.40
2024-02-04T15:30:43.877Z,14.39
2024-02-04T15:33:10.870Z,14.31
2024-02-04T15:35:37.893Z,14.28
2024-02-04T15:38:04.814Z,14.29
2024-02-04T15:40:31.546Z,14.21
2024-02-04T15:42:58.408Z,14.19
2024-02-04T15:45:25.243Z,14.20
2024-02-04T15:47:52.776Z,14.18
2024-02-04T15:50:20.081Z,14.06
2024-02-04T15:52:50.863Z,14.04
2024-02-04T15:55:18.828Z,14.05
2024-02-04T15:57:50.723Z,13.98
2024-02-04T16:00:21.873Z,13.95
2024-02-04T16:02:49.354Z,13.93
2024-02-04T16:05:17.046Z,13.90
2024-02-04T16:07:44.744Z,13.85
2024-02-04T16:10:19.728Z,13.80
2024-02-04T16:12:55.436Z,13.77
2024-02-04T16:15:30.193Z,13.73
2024-02-04T16:17:57.642Z,13.68
2024-02-04T16:20:24.930Z,13.61
2024-02-04T16:22:51.747Z,13.63
2024-02-04T16:25:19.576Z,13.56
2024-02-04T16:27:46.812Z,13.51
2024-02-04T16:30:14.088Z,13.49
2024-02-04T16:32:41.320Z,13.51
2024-02-04T16:35:09.092Z,13.44
2024-02-04T16:37:36.141Z,13.41
2024-02-04T16:40:03.013Z,13.38
2024-02-04T16:42:30.000Z,13.37
2024-02-04T16:44:56.773Z,13.37
2024-02-04T16:47:23.541Z,13.30
2024-02-04T16:49:50.334Z,13.28
2024-02-04T16:52:17.154Z,13.20
2024-02-04T16:54:43.892Z,13.20
2024-02-04T16:57:11.262Z,13.18
2024-02-04T16:59:38.019Z,13.17
2024-02-04T17:02:05.301Z,13.22
2024-02-04T17:04:32.460Z,13.20
2024-02-04T17:06:59.805Z,13.13
2024-02-04T17:09:27.009Z,13.16
2024-02-04T17:11:53.973Z,13.14
2024-02-04T17:14:21.174Z,13.11
2024-02-04T17:17:06.166Z,13.07
2024-02-04T17:19:59.501Z,13.08
2024-02-04T17:22:27.127Z,13.04
2024-02-04T17:24:56.757Z,13.03
2024-02-04T17:27:25.885Z,13.03
2024-02-04T17:29:52.973Z,13.04
2024-02-04T17:32:20.009Z,13.01
2024-02-04T17:34:47.059Z,12.97
2024-02-04T17:37:13.969Z,12.91
2024-02-04T17:39:40.764Z,12.88
2024-02-04T17:42:07.607Z,12.89
2024-02-04T17:44:34.355Z,12.91
2024-02-04T17:47:01.659Z,12.91
2024-02-04T17:49:28.886Z,12.87
2024-02-04T17:51:55.751Z,12.88
2024-02-04T17:54:22.590Z,12.83
2024-02-04T17:56:49.414Z,12.82
2024-02-04T17:59:16.198Z,12.85
2024-02-04T18:01:43.096Z,12.75
2024-02-04T18:04:10.167Z,12.77
2024-02-04T18:06:40.607Z,12.77
2024-02-04T18:09:08.205Z,12.69
2024-02-04T18:11:35.087Z,12.66
2024-02-04T18:14:01.867Z,12.63
2024-02-04T18:16:29.481Z,12.65
2024-02-04T18:18:56.407Z,12.65
2024-02-04T18:21:24.332Z,12.63
2024-02-04T18:23:52.418Z,12.61
2024-02-04T18:26:23.168Z,12.59
2024-02-04T18:28:50.912Z,12.61
2024-02-04T18:31:18.027Z,12.52
2024-02-04T18:33:45.244Z,12.45
2024-02-04T18:36:13.358Z,12.50
2024-02-04T18:38:40.127Z,12.60
2024-02-04T18:41:10.077Z,12.54
2024-02-04T18:43:37.141Z,12.42
2024-02-04T18:46:03.960Z,12.30
2024-02-04T18:48:30.853Z,12.29
2024-02-04T18:50:58.539Z,12.44
2024-02-04T18:53:25.514Z,12.35
2024-02-04T18:55:52.348Z,12.26
2024-02-04T18:58:19.158Z,12.29
2024-02-04T19:00:46.001Z,12.16
2024-02-04T19:03:12.906Z,12.00
2024-02-04T19:05:40.497Z,12.00
2024-02-04T19:08:08.031Z,12.01
2024-02-04T19:10:36.252Z,11.94
2024-02-04T19:13:03.167Z,11.87
2024-02-04T19:15:30.527Z,11.94
2024-02-04T19:17:57.340Z,11.91
2024-02-04T19:20:24.159Z,11.78
2024-02-04T19:22:51.650Z,11.81
2024-02-04T19:25:19.848Z,11.84
2024-02-04T19:27:51.433Z,11.77
2024-02-04T19:30:19.528Z,11.77
2024-02-04T19:32:47.248Z,11.83
2024-02-04T19:35:15.557Z,11.70
2024-02-04T19:37:43.574Z,11.77
2024-02-04T19:40:12.312Z,11.70
2024-02-04T19:42:40.225Z,11.75
2024-02-04T19:45:08.073Z,11.71
2024-02-04T19:47:34.905Z,11.70
2024-02-04T19:50:02.315Z,11.70
2024-02-04T19:52:29.252Z,11.64
2024-02-04T19:54:56.085Z,11.63
2024-02-04T19:57:22.864Z,11.61
2024-02-04T19:59:49.600Z,11.56
2024-02-04T20:02:16.357Z,11.49
2024-02-04T20:04:43.261Z,11.53
2024-02-04T20:07:10.182Z,11.52
2024-02-04T20:09:37.034Z,11.42
2024-02-04T20:12:07.894Z,11.31
2024-02-04T20:14:35.209Z,11.32
2024-02-04T20:17:01.994Z,11.28
2024-02-04T20:19:28.828Z,11.27
2024-02-04T20:21:55.752Z,11.19
2024-02-04T20:24:22.600Z,11.19
2024-02-04T20:26:49.466Z,11.25
2024-02-04T20:29:16.199Z,11.24
2024-02-04T20:31:43.068Z,11.24
2024-02-04T20:34:10.072Z,11.21
2024-02-04T20:36:37.543Z,11.22
2024-02-04T20:39:04.435Z,11.32
2024-02-04T20:41:31.238Z,11.27
2024-02-04T20:43:58.131Z,11.19
2024-02-04T20:46:25.072Z,11.21
2024-02-04T20:48:51.948Z,11.14
2024-02-04T20:51:18.717Z,11.14
2024-02-04T20:53:45.590Z,11.21
2024-02-04T20:56:16.364Z,11.21
2024-02-04T20:58:43.164Z,11.38
2024-02-04T21:01:10.654Z,11.37
2024-02-04T21:03:37.581Z,11.32
2024-02-04T21:06:04.472Z,11.33
2024-02-04T21:08:31.271Z,11.38
2024-02-04T21:10:58.054Z,11.41
2024-02-04T21:13:24.945Z,11.30
2024-02-04T21:15:51.794Z,11.22
2024-02-04T21:18:18.683Z,11.27
2024-02-04T21:20:45.490Z,11.21
2024-02-04T21:23:12.423Z,11.18
2024-02-04T21:25:39.258Z,11.24
2024-02-04T21:28:06.242Z,11.25
2024-02-04T21:30:33.175Z,11.26
2024-02-04T21:33:00.625Z,11.27
2024-02-04T21:35:27.402Z,11.27
2024-02-04T21:37:54.149Z,11.20
2024-02-04T21:40:23.734Z,11.20
2024-02-04T21:42:50.643Z,11.12
2024-02-04T21:45:17.797Z,11.13
2024-02-04T21:47:44.688Z,11.15
2024-02-04T21:50:11.526Z,11.12
2024-02-04T21:52:38.485Z,11.09
2024-02-04T21:55:05.592Z,11.08
2024-02-04T21:57:32.498Z,11.05
2024-02-04T21:59:59.314Z,11.03
2024-02-04T22:02:26.141Z,11.05
2024-02-04T22:04:55.629Z,11.03
2024-02-04T22:07:22.451Z,10.97
2024-02-04T22:09:49.307Z,10.92
2024-02-04T22:12:16.083Z,10.92
2024-02-04T22:14:42.857Z,10.91
2024-02-04T22:17:09.628Z,10.88
2024-02-04T22:19:36.478Z,10.87
2024-02-04T22:22:03.409Z,10.88
2024-02-04T22:24:30.181Z,10.88
2024-02-04T22:26:57.003Z,10.79
2024-02-04T22:29:23.805Z,10.73
2024-02-04T22:31:50.549Z,10.74
2024-02-04T22:34:17.347Z,10.75
2024-02-04T22:36:44.163Z,10.72
2024-02-04T22:39:11.280Z,10.64
2024-02-04T22:41:41.786Z,10.66
2024-02-04T22:44:10.126Z,10.59
2024-02-04T22:46:37.260Z,10.61
2024-02-04T22:49:04.886Z,10.61
2024-02-04T22:51:32.746Z,10.60
2024-02-04T22:53:59.571Z,10.61
2024-02-04T22:56:26.330Z,10.54
2024-02-04T22:58:53.097Z,10.45
2024-02-04T23:01:19.946Z,10.41
2024-02-04T23:03:46.854Z,10.32
2024-02-04T23:06:13.744Z,10.31
2024-02-04T23:08:40.692Z,10.25
2024-02-04T23:11:07.533Z,10.28
2024-02-04T23:13:34.408Z,10.29
2024-02-04T23:16:01.435Z,10.16
2024-02-04T23:18:28.270Z,10.19
2024-02-04T23:20:55.003Z,10.11
2024-02-04T23:23:21.736Z,10.14
2024-02-04T23:25:48.569Z,10.15
2024-02-04T23:28:15.354Z,10.21
2024-02-04T23:30:42.152Z,10.20
2024-02-04T23:33:09.019Z,10.19
2024-02-04T23:35:35.827Z,10.21
2024-02-04T23:38:02.656Z,10.22
2024-02-04T23:40:29.510Z,10.11
2024-02-04T23:42:56.367Z,10.08
2024-02-04T23:45:23.235Z,10.07
2024-02-04T23:47:50.034Z,10.10
2024-02-04T23:50:17.614Z,10.18
2024-02-04T23:52:44.569Z,10.22
2024-02-04T23:55:11.585Z,10.14
2024-02-04T23:57:39.319Z,10.14
